sensor_id;sensor_type;location;lat;lon;timestamp;pressure;altitude;pressure_sealevel;temperature
4421;BMP180;11824;51.178;13.546;2024-02-16T00:02:07;100313.00;;;7.10
4421;BMP180;11824;51.178;13.546;2024-02-16T00:04:36;100315.00;;;7.10
4421;BMP180;11824;51.178;13.546;2024-02-16T00:07:05;100305.00;;;7.10
4421;BMP180;11824;51.178;13.546;2024-02-16T00:09:34;100301.00;;;7.00
4421;BMP180;11824;51.178;13.546;2024-02-16T00:12:03;100310.00;;;7.00
4421;BMP180;11824;51.178;13.546;2024-02-16T00:14:31;100305.00;;;7.00
4421;BMP180;11824;51.178;13.546;2024-02-16T00:17:01;100299.00;;;7.00
4421;BMP180;11824;51.178;13.546;2024-02-16T00:19:31;100302.00;;;7.00
4421;BMP180;11824;51.178;13.546;2024-02-16T00:22:00;100293.00;;;7.00
4421;BMP180;11824;51.178;13.546;2024-02-16T00:24:28;100290.00;;;6.90
4421;BMP180;11824;51.178;13.546;2024-02-16T00:26:59;100295.00;;;6.90
4421;BMP180;11824;51.178;13.546;2024-02-16T00:29:29;100280.00;;;6.90
4421;BMP180;11824;51.178;13.546;2024-02-16T00:31:58;100282.00;;;6.90
4421;BMP180;11824;51.178;13.546;2024-02-16T00:34:27;100284.00;;;6.90
4421;BMP180;11824;51.178;13.546;2024-02-16T00:36:57;100281.00;;;6.80
4421;BMP180;11824;51.178;13.546;2024-02-16T00:39:26;100273.00;;;6.80
4421;BMP180;11824;51.178;13.546;2024-02-16T00:41:55;100272.00;;;6.80
4421;BMP180;11824;51.178;13.546;2024-02-16T00:44:24;100267.00;;;6.80
4421;BMP180;11824;51.178;13.546;2024-02-16T00:46:53;100268.00;;;6.80
4421;BMP180;11824;51.178;13.546;2024-02-16T00:49:22;100276.00;;;6.80
4421;BMP180;11824;51.178;13.546;2024-02-16T00:51:50;100265.00;;;6.70
4421;BMP180;11824;51.178;13.546;2024-02-16T00:54:24;100271.00;;;6.70
4421;BMP180;11824;51.178;13.546;2024-02-16T00:56:53;100274.00;;;6.70
4421;BMP180;11824;51.178;13.546;2024-02-16T00:59:22;100257.00;;;6.70
4421;BMP180;11824;51.178;13.546;2024-02-16T01:01:51;100262.00;;;6.60
4421;BMP180;11824;51.178;13.546;2024-02-16T01:04:20;100261.00;;;6.60
4421;BMP180;11824;51.178;13.546;2024-02-16T01:06:49;100259.00;;;6.60
4421;BMP180;11824;51.178;13.546;2024-02-16T01:09:18;100261.00;;;6.60
4421;BMP180;11824;51.178;13.546;2024-02-16T01:11:48;100262.00;;;6.60
4421;BMP180;11824;51.178;13.546;2024-02-16T01:14:17;100253.00;;;6.60
4421;BMP180;11824;51.178;13.546;2024-02-16T01:16:46;100253.00;;;6.60
4421;BMP180;11824;51.178;13.546;2024-02-16T01:19:15;100257.00;;;6.60
4421;BMP180;11824;51.178;13.546;2024-02-16T01:21:45;100251.00;;;6.60
4421;BMP180;11824;51.178;13.546;2024-02-16T01:24:19;100258.00;;;6.50
4421;BMP180;11824;51.178;13.546;2024-02-16T01:26:50;100243.00;;;6.50
4421;BMP180;11824;51.178;13.546;2024-02-16T01:29:19;100246.00;;;6.50
4421;BMP180;11824;51.178;13.546;2024-02-16T01:31:48;100256.00;;;6.50
4421;BMP180;11824;51.178;13.546;2024-02-16T01:34:17;100247.00;;;6.50
4421;BMP180;11824;51.178;13.546;2024-02-16T01:36:46;100248.00;;;6.50
4421;BMP180;11824;51.178;13.546;2024-02-16T01:39:14;100244.00;;;6.50
4421;BMP180;11824;51.178;13.546;2024-02-16T01:41:43;100249.00;;;6.50
4421;BMP180;11824;51.178;13.546;2024-02-16T01:44:13;100255.00;;;6.50
4421;BMP180;11824;51.178;13.546;2024-02-16T01:46:44;100240.00;;;6.50
4421;BMP180;11824;51.178;13.546;2024-02-16T01:49:13;100240.00;;;6.60
4421;BMP180;11824;51.178;13.546;2024-02-16T01:51:43;100248.00;;;6.60
4421;BMP180;11824;51.178;13.546;2024-02-16T01:54:13;100254.00;;;6.60
4421;BMP180;11824;51.178;13.546;2024-02-16T01:56:45;100257.00;;;6.60
4421;BMP180;11824;51.178;13.546;2024-02-16T01:59:15;100242.00;;;6.60
4421;BMP180;11824;51.178;13.546;2024-02-16T02:01:45;100261.00;;;6.70
4421;BMP180;11824;51.178;13.546;2024-02-16T02:04:13;100239.00;;;6.70
4421;BMP180;11824;51.178;13.546;2024-02-16T02:06:43;100238.00;;;6.70
4421;BMP180;11824;51.178;13.546;2024-02-16T02:09:12;100235.00;;;6.70
4421;BMP180;11824;51.178;13.546;2024-02-16T02:11:41;100236.00;;;6.70
4421;BMP180;11824;51.178;13.546;2024-02-16T02:14:09;100231.00;;;6.70
4421;BMP180;11824;51.178;13.546;2024-02-16T02:16:40;100220.00;;;6.60
4421;BMP180;11824;51.178;13.546;2024-02-16T02:19:21;100219.00;;;6.60
4421;BMP180;11824;51.178;13.546;2024-02-16T02:21:50;100227.00;;;6.60
4421;BMP180;11824;51.178;13.546;2024-02-16T02:24:20;100220.00;;;6.60
4421;BMP180;11824;51.178;13.546;2024-02-16T02:26:49;100227.00;;;6.50
4421;BMP180;11824;51.178;13.546;2024-02-16T02:29:18;100220.00;;;6.50
4421;BMP180;11824;51.178;13.546;2024-02-16T02:31:47;100217.00;;;6.60
4421;BMP180;11824;51.178;13.546;2024-02-16T02:34:16;100207.00;;;6.50
4421;BMP180;11824;51.178;13.546;2024-02-16T02:36:45;100214.00;;;6.50
4421;BMP180;11824;51.178;13.546;2024-02-16T02:39:14;100215.00;;;6.60
4421;BMP180;11824;51.178;13.546;2024-02-16T02:41:44;100211.00;;;6.60
4421;BMP180;11824;51.178;13.546;2024-02-16T02:44:13;100212.00;;;6.60
4421;BMP180;11824;51.178;13.546;2024-02-16T02:46:42;100215.00;;;6.60
4421;BMP180;11824;51.178;13.546;2024-02-16T02:49:11;100214.00;;;6.70
4421;BMP180;11824;51.178;13.546;2024-02-16T02:51:40;100216.00;;;6.70
4421;BMP180;11824;51.178;13.546;2024-02-16T02:54:09;100213.00;;;6.70
4421;BMP180;11824;51.178;13.546;2024-02-16T02:56:37;100214.00;;;6.80
4421;BMP180;11824;51.178;13.546;2024-02-16T02:59:08;100210.00;;;6.80
4421;BMP180;11824;51.178;13.546;2024-02-16T03:01:38;100203.00;;;6.90
4421;BMP180;11824;51.178;13.546;2024-02-16T03:04:07;100205.00;;;6.90
4421;BMP180;11824;51.178;13.546;2024-02-16T03:06:37;100201.00;;;7.00
4421;BMP180;11824;51.178;13.546;2024-02-16T03:09:06;100200.00;;;7.00
4421;BMP180;11824;51.178;13.546;2024-02-16T03:11:35;100196.00;;;7.00
4421;BMP180;11824;51.178;13.546;2024-02-16T03:14:04;100197.00;;;7.00
4421;BMP180;11824;51.178;13.546;2024-02-16T03:16:34;100194.00;;;7.10
4421;BMP180;11824;51.178;13.546;2024-02-16T03:19:06;100183.00;;;7.10
4421;BMP180;11824;51.178;13.546;2024-02-16T03:21:36;100185.00;;;7.10
4421;BMP180;11824;51.178;13.546;2024-02-16T03:24:05;100187.00;;;7.10
4421;BMP180;11824;51.178;13.546;2024-02-16T03:26:35;100193.00;;;7.10
4421;BMP180;11824;51.178;13.546;2024-02-16T03:29:03;100193.00;;;7.20
4421;BMP180;11824;51.178;13.546;2024-02-16T03:31:33;100187.00;;;7.20
4421;BMP180;11824;51.178;13.546;2024-02-16T03:34:03;100200.00;;;7.20
4421;BMP180;11824;51.178;13.546;2024-02-16T03:36:32;100204.00;;;7.20
4421;BMP180;11824;51.178;13.546;2024-02-16T03:39:02;100204.00;;;7.30
4421;BMP180;11824;51.178;13.546;2024-02-16T03:41:31;100209.00;;;7.30
4421;BMP180;11824;51.178;13.546;2024-02-16T03:44:00;100206.00;;;7.30
4421;BMP180;11824;51.178;13.546;2024-02-16T03:46:29;100202.00;;;7.30
4421;BMP180;11824;51.178;13.546;2024-02-16T03:48:59;100196.00;;;7.30
4421;BMP180;11824;51.178;13.546;2024-02-16T03:51:28;100204.00;;;7.20
4421;BMP180;11824;51.178;13.546;2024-02-16T03:53:57;100197.00;;;7.20
4421;BMP180;11824;51.178;13.546;2024-02-16T03:56:26;100201.00;;;7.20
4421;BMP180;11824;51.178;13.546;2024-02-16T03:58:55;100197.00;;;7.20
4421;BMP180;11824;51.178;13.546;2024-02-16T04:01:24;100197.00;;;7.20
4421;BMP180;11824;51.178;13.546;2024-02-16T04:03:52;100210.00;;;7.20
4421;BMP180;11824;51.178;13.546;2024-02-16T04:06:23;100203.00;;;7.20
4421;BMP180;11824;51.178;13.546;2024-02-16T04:08:52;100208.00;;;7.10
4421;BMP180;11824;51.178;13.546;2024-02-16T04:11:22;100200.00;;;7.10
4421;BMP180;11824;51.178;13.546;2024-02-16T04:13:50;100208.00;;;7.10
4421;BMP180;11824;51.178;13.546;2024-02-16T04:16:19;100202.00;;;7.10
4421;BMP180;11824;51.178;13.546;2024-02-16T04:18:49;100200.00;;;7.00
4421;BMP180;11824;51.178;13.546;2024-02-16T04:21:18;100215.00;;;7.00
4421;BMP180;11824;51.178;13.546;2024-02-16T04:23:49;100209.00;;;7.00
4421;BMP180;11824;51.178;13.546;2024-02-16T04:26:18;100211.00;;;6.90
4421;BMP180;11824;51.178;13.546;2024-02-16T04:28:47;100214.00;;;6.90
4421;BMP180;11824;51.178;13.546;2024-02-16T04:31:16;100209.00;;;6.90
4421;BMP180;11824;51.178;13.546;2024-02-16T04:33:45;100202.00;;;6.90
4421;BMP180;11824;51.178;13.546;2024-02-16T04:36:14;100202.00;;;6.90
4421;BMP180;11824;51.178;13.546;2024-02-16T04:38:43;100201.00;;;6.90
4421;BMP180;11824;51.178;13.546;2024-02-16T04:41:14;100204.00;;;6.90
4421;BMP180;11824;51.178;13.546;2024-02-16T04:43:43;100200.00;;;6.80
4421;BMP180;11824;51.178;13.546;2024-02-16T04:46:14;100206.00;;;6.80
4421;BMP180;11824;51.178;13.546;2024-02-16T04:48:44;100211.00;;;6.80
4421;BMP180;11824;51.178;13.546;2024-02-16T04:51:13;100201.00;;;6.80
4421;BMP180;11824;51.178;13.546;2024-02-16T04:53:41;100202.00;;;6.90
4421;BMP180;11824;51.178;13.546;2024-02-16T04:56:10;100198.00;;;6.90
4421;BMP180;11824;51.178;13.546;2024-02-16T04:58:42;100197.00;;;6.90
4421;BMP180;11824;51.178;13.546;2024-02-16T05:01:12;100194.00;;;6.90
4421;BMP180;11824;51.178;13.546;2024-02-16T05:03:41;100199.00;;;7.00
4421;BMP180;11824;51.178;13.546;2024-02-16T05:06:10;100188.00;;;7.00
4421;BMP180;11824;51.178;13.546;2024-02-16T05:08:39;100191.00;;;7.00
4421;BMP180;11824;51.178;13.546;2024-02-16T05:11:08;100189.00;;;7.10
4421;BMP180;11824;51.178;13.546;2024-02-16T05:13:37;100189.00;;;7.20
4421;BMP180;11824;51.178;13.546;2024-02-16T05:16:11;100184.00;;;7.20
4421;BMP180;11824;51.178;13.546;2024-02-16T05:18:40;100187.00;;;7.20
4421;BMP180;11824;51.178;13.546;2024-02-16T05:21:09;100192.00;;;7.30
4421;BMP180;11824;51.178;13.546;2024-02-16T05:23:38;100183.00;;;7.30
4421;BMP180;11824;51.178;13.546;2024-02-16T05:26:07;100188.00;;;7.30
4421;BMP180;11824;51.178;13.546;2024-02-16T05:28:36;100186.00;;;7.30
4421;BMP180;11824;51.178;13.546;2024-02-16T05:31:16;100189.00;;;7.30
4421;BMP180;11824;51.178;13.546;2024-02-16T05:33:50;100181.00;;;7.30
4421;BMP180;11824;51.178;13.546;2024-02-16T05:36:20;100188.00;;;7.30
4421;BMP180;11824;51.178;13.546;2024-02-16T05:38:55;100190.00;;;7.30
4421;BMP180;11824;51.178;13.546;2024-02-16T05:41:26;100185.00;;;7.30
4421;BMP180;11824;51.178;13.546;2024-02-16T05:43:55;100188.00;;;7.30
4421;BMP180;11824;51.178;13.546;2024-02-16T05:46:25;100180.00;;;7.30
4421;BMP180;11824;51.178;13.546;2024-02-16T05:48:54;100176.00;;;7.30
4421;BMP180;11824;51.178;13.546;2024-02-16T05:51:23;100178.00;;;7.30
4421;BMP180;11824;51.178;13.546;2024-02-16T05:53:52;100184.00;;;7.40
4421;BMP180;11824;51.178;13.546;2024-02-16T05:56:21;100188.00;;;7.40
4421;BMP180;11824;51.178;13.546;2024-02-16T05:58:50;100178.00;;;7.40
4421;BMP180;11824;51.178;13.546;2024-02-16T06:01:19;100181.00;;;7.40
4421;BMP180;11824;51.178;13.546;2024-02-16T06:03:49;100182.00;;;7.40
4421;BMP180;11824;51.178;13.546;2024-02-16T06:06:18;100177.00;;;7.40
4421;BMP180;11824;51.178;13.546;2024-02-16T06:08:47;100172.00;;;7.40
4421;BMP180;11824;51.178;13.546;2024-02-16T06:11:16;100179.00;;;7.40
4421;BMP180;11824;51.178;13.546;2024-02-16T06:13:45;100174.00;;;7.50
4421;BMP180;11824;51.178;13.546;2024-02-16T06:16:13;100180.00;;;7.50
4421;BMP180;11824;51.178;13.546;2024-02-16T06:18:43;100182.00;;;7.50
4421;BMP180;11824;51.178;13.546;2024-02-16T06:21:14;100191.00;;;7.50
4421;BMP180;11824;51.178;13.546;2024-02-16T06:23:43;100202.00;;;7.50
4421;BMP180;11824;51.178;13.546;2024-02-16T06:26:12;100195.00;;;7.50
4421;BMP180;11824;51.178;13.546;2024-02-16T06:28:41;100197.00;;;7.50
4421;BMP180;11824;51.178;13.546;2024-02-16T06:31:09;100202.00;;;7.60
4421;BMP180;11824;51.178;13.546;2024-02-16T06:33:39;100199.00;;;7.60
4421;BMP180;11824;51.178;13.546;2024-02-16T06:36:09;100205.00;;;7.60
4421;BMP180;11824;51.178;13.546;2024-02-16T06:38:40;100204.00;;;7.60
4421;BMP180;11824;51.178;13.546;2024-02-16T06:41:08;100202.00;;;7.60
4421;BMP180;11824;51.178;13.546;2024-02-16T06:43:37;100206.00;;;7.60
4421;BMP180;11824;51.178;13.546;2024-02-16T06:46:06;100210.00;;;7.60
4421;BMP180;11824;51.178;13.546;2024-02-16T06:48:35;100203.00;;;7.70
4421;BMP180;11824;51.178;13.546;2024-02-16T06:51:04;100204.00;;;7.70
4421;BMP180;11824;51.178;13.546;2024-02-16T06:53:36;100203.00;;;7.70
4421;BMP180;11824;51.178;13.546;2024-02-16T06:56:06;100202.00;;;7.80
4421;BMP180;11824;51.178;13.546;2024-02-16T06:58:35;100216.00;;;7.90
4421;BMP180;11824;51.178;13.546;2024-02-16T07:01:05;100211.00;;;7.90
4421;BMP180;11824;51.178;13.546;2024-02-16T07:03:35;100212.00;;;8.00
4421;BMP180;11824;51.178;13.546;2024-02-16T07:06:04;100201.00;;;8.10
4421;BMP180;11824;51.178;13.546;2024-02-16T07:08:37;100210.00;;;8.30
4421;BMP180;11824;51.178;13.546;2024-02-16T07:11:07;100208.00;;;8.40
4421;BMP180;11824;51.178;13.546;2024-02-16T07:13:39;100204.00;;;8.50
4421;BMP180;11824;51.178;13.546;2024-02-16T07:16:08;100200.00;;;8.70
4421;BMP180;11824;51.178;13.546;2024-02-16T07:18:37;100208.00;;;8.80
4421;BMP180;11824;51.178;13.546;2024-02-16T07:21:06;100206.00;;;8.90
4421;BMP180;11824;51.178;13.546;2024-02-16T07:23:34;100214.00;;;9.00
4421;BMP180;11824;51.178;13.546;2024-02-16T07:26:03;100200.00;;;9.10
4421;BMP180;11824;51.178;13.546;2024-02-16T07:28:35;100212.00;;;9.30
4421;BMP180;11824;51.178;13.546;2024-02-16T07:31:05;100226.00;;;9.40
4421;BMP180;11824;51.178;13.546;2024-02-16T07:33:34;100217.00;;;9.50
4421;BMP180;11824;51.178;13.546;2024-02-16T07:36:03;100209.00;;;9.50
4421;BMP180;11824;51.178;13.546;2024-02-16T07:38:32;100198.00;;;9.60
4421;BMP180;11824;51.178;13.546;2024-02-16T07:41:01;100207.00;;;9.70
4421;BMP180;11824;51.178;13.546;2024-02-16T07:43:36;100200.00;;;9.80
4421;BMP180;11824;51.178;13.546;2024-02-16T07:46:06;100192.00;;;9.90
4421;BMP180;11824;51.178;13.546;2024-02-16T07:48:35;100197.00;;;10.00
4421;BMP180;11824;51.178;13.546;2024-02-16T07:51:04;100205.00;;;10.10
4421;BMP180;11824;51.178;13.546;2024-02-16T07:53:35;100210.00;;;10.10
4421;BMP180;11824;51.178;13.546;2024-02-16T07:56:05;100200.00;;;10.20
4421;BMP180;11824;51.178;13.546;2024-02-16T07:58:35;100203.00;;;10.30
4421;BMP180;11824;51.178;13.546;2024-02-16T08:01:04;100199.00;;;10.40
4421;BMP180;11824;51.178;13.546;2024-02-16T08:03:33;100190.00;;;10.50
4421;BMP180;11824;51.178;13.546;2024-02-16T08:06:03;100192.00;;;10.50
4421;BMP180;11824;51.178;13.546;2024-02-16T08:08:32;100193.00;;;10.60
4421;BMP180;11824;51.178;13.546;2024-02-16T08:11:01;100205.00;;;10.70
4421;BMP180;11824;51.178;13.546;2024-02-16T08:13:30;100202.00;;;10.70
4421;BMP180;11824;51.178;13.546;2024-02-16T08:16:00;100204.00;;;10.80
4421;BMP180;11824;51.178;13.546;2024-02-16T08:18:34;100206.00;;;10.80
4421;BMP180;11824;51.178;13.546;2024-02-16T08:21:03;100213.00;;;10.90
4421;BMP180;11824;51.178;13.546;2024-02-16T08:23:32;100207.00;;;10.90
4421;BMP180;11824;51.178;13.546;2024-02-16T08:26:01;100199.00;;;11.00
4421;BMP180;11824;51.178;13.546;2024-02-16T08:28:30;100192.00;;;11.00
4421;BMP180;11824;51.178;13.546;2024-02-16T08:31:00;100188.00;;;11.10
4421;BMP180;11824;51.178;13.546;2024-02-16T08:33:29;100185.00;;;11.10
4421;BMP180;11824;51.178;13.546;2024-02-16T08:35:59;100196.00;;;11.20
4421;BMP180;11824;51.178;13.546;2024-02-16T08:38:28;100198.00;;;11.30
4421;BMP180;11824;51.178;13.546;2024-02-16T08:40:57;100204.00;;;11.40
4421;BMP180;11824;51.178;13.546;2024-02-16T08:43:27;100199.00;;;11.50
4421;BMP180;11824;51.178;13.546;2024-02-16T08:45:56;100204.00;;;11.60
4421;BMP180;11824;51.178;13.546;2024-02-16T08:48:26;100194.00;;;11.70
4421;BMP180;11824;51.178;13.546;2024-02-16T08:50:55;100196.00;;;11.80
4421;BMP180;11824;51.178;13.546;2024-02-16T08:53:24;100199.00;;;11.80
4421;BMP180;11824;51.178;13.546;2024-02-16T08:55:53;100207.00;;;11.90
4421;BMP180;11824;51.178;13.546;2024-02-16T08:58:21;100201.00;;;12.00
4421;BMP180;11824;51.178;13.546;2024-02-16T09:00:50;100199.00;;;12.10
4421;BMP180;11824;51.178;13.546;2024-02-16T09:03:19;100200.00;;;12.20
4421;BMP180;11824;51.178;13.546;2024-02-16T09:05:50;100197.00;;;12.20
4421;BMP180;11824;51.178;13.546;2024-02-16T09:08:18;100200.00;;;12.30
4421;BMP180;11824;51.178;13.546;2024-02-16T09:10:47;100199.00;;;12.40
4421;BMP180;11824;51.178;13.546;2024-02-16T09:13:16;100203.00;;;12.40
4421;BMP180;11824;51.178;13.546;2024-02-16T09:16:01;100188.00;;;12.50
4421;BMP180;11824;51.178;13.546;2024-02-16T09:18:30;100189.00;;;12.60
4421;BMP180;11824;51.178;13.546;2024-02-16T09:21:01;100189.00;;;12.60
4421;BMP180;11824;51.178;13.546;2024-02-16T09:23:29;100185.00;;;12.70
4421;BMP180;11824;51.178;13.546;2024-02-16T09:25:58;100191.00;;;12.70
4421;BMP180;11824;51.178;13.546;2024-02-16T09:28:28;100192.00;;;12.70
4421;BMP180;11824;51.178;13.546;2024-02-16T09:30:57;100204.00;;;12.80
4421;BMP180;11824;51.178;13.546;2024-02-16T09:33:26;100196.00;;;12.80
4421;BMP180;11824;51.178;13.546;2024-02-16T09:35:55;100192.00;;;12.80
4421;BMP180;11824;51.178;13.546;2024-02-16T09:38:25;100194.00;;;12.90
4421;BMP180;11824;51.178;13.546;2024-02-16T09:40:54;100196.00;;;12.90
4421;BMP180;11824;51.178;13.546;2024-02-16T09:43:26;100191.00;;;12.90
4421;BMP180;11824;51.178;13.546;2024-02-16T09:45:56;100195.00;;;13.00
4421;BMP180;11824;51.178;13.546;2024-02-16T09:48:26;100196.00;;;13.10
4421;BMP180;11824;51.178;13.546;2024-02-16T09:50:57;100196.00;;;13.20
4421;BMP180;11824;51.178;13.546;2024-02-16T09:53:29;100197.00;;;13.30
4421;BMP180;11824;51.178;13.546;2024-02-16T09:55:57;100201.00;;;13.40
4421;BMP180;11824;51.178;13.546;2024-02-16T09:58:26;100206.00;;;13.40
4421;BMP180;11824;51.178;13.546;2024-02-16T10:00:56;100205.00;;;13.50
4421;BMP180;11824;51.178;13.546;2024-02-16T10:03:26;100202.00;;;13.50
4421;BMP180;11824;51.178;13.546;2024-02-16T10:06:06;100206.00;;;13.50
4421;BMP180;11824;51.178;13.546;2024-02-16T10:08:48;100190.00;;;13.60
4421;BMP180;11824;51.178;13.546;2024-02-16T10:11:19;100198.00;;;13.70
4421;BMP180;11824;51.178;13.546;2024-02-16T10:13:55;100191.00;;;13.70
4421;BMP180;11824;51.178;13.546;2024-02-16T10:16:24;100192.00;;;13.80
4421;BMP180;11824;51.178;13.546;2024-02-16T10:18:56;100203.00;;;13.80
4421;BMP180;11824;51.178;13.546;2024-02-16T10:21:26;100194.00;;;13.90
4421;BMP180;11824;51.178;13.546;2024-02-16T10:24:00;100209.00;;;14.00
4421;BMP180;11824;51.178;13.546;2024-02-16T10:26:30;100207.00;;;14.10
4421;BMP180;11824;51.178;13.546;2024-02-16T10:28:59;100206.00;;;14.10
4421;BMP180;11824;51.178;13.546;2024-02-16T10:31:31;100209.00;;;14.20
4421;BMP180;11824;51.178;13.546;2024-02-16T10:34:01;100210.00;;;14.30
4421;BMP180;11824;51.178;13.546;2024-02-16T10:36:34;100200.00;;;14.30
4421;BMP180;11824;51.178;13.546;2024-02-16T10:39:06;100204.00;;;14.40
4421;BMP180;11824;51.178;13.546;2024-02-16T10:41:37;100201.00;;;14.50
4421;BMP180;11824;51.178;13.546;2024-02-16T10:44:06;100194.00;;;14.60
4421;BMP180;11824;51.178;13.546;2024-02-16T10:46:35;100194.00;;;14.70
4421;BMP180;11824;51.178;13.546;2024-02-16T10:49:05;100197.00;;;14.80
4421;BMP180;11824;51.178;13.546;2024-02-16T10:51:37;100190.00;;;15.00
4421;BMP180;11824;51.178;13.546;2024-02-16T10:54:09;100193.00;;;15.10
4421;BMP180;11824;51.178;13.546;2024-02-16T10:56:40;100196.00;;;15.20
4421;BMP180;11824;51.178;13.546;2024-02-16T10:59:10;100185.00;;;15.30
4421;BMP180;11824;51.178;13.546;2024-02-16T11:01:40;100186.00;;;15.30
4421;BMP180;11824;51.178;13.546;2024-02-16T11:04:11;100174.00;;;15.40
4421;BMP180;11824;51.178;13.546;2024-02-16T11:06:47;100170.00;;;15.40
4421;BMP180;11824;51.178;13.546;2024-02-16T11:09:30;100168.00;;;15.40
4421;BMP180;11824;51.178;13.546;2024-02-16T11:12:01;100171.00;;;15.30
4421;BMP180;11824;51.178;13.546;2024-02-16T11:14:37;100175.00;;;15.40
4421;BMP180;11824;51.178;13.546;2024-02-16T11:17:09;100173.00;;;15.30
4421;BMP180;11824;51.178;13.546;2024-02-16T11:19:41;100169.00;;;15.30
4421;BMP180;11824;51.178;13.546;2024-02-16T11:22:11;100172.00;;;15.30
4421;BMP180;11824;51.178;13.546;2024-02-16T11:24:46;100163.00;;;15.30
4421;BMP180;11824;51.178;13.546;2024-02-16T11:27:16;100158.00;;;15.40
4421;BMP180;11824;51.178;13.546;2024-02-16T11:29:48;100157.00;;;15.30
4421;BMP180;11824;51.178;13.546;2024-02-16T11:32:19;100170.00;;;15.30
4421;BMP180;11824;51.178;13.546;2024-02-16T11:34:48;100160.00;;;15.30
4421;BMP180;11824;51.178;13.546;2024-02-16T11:37:18;100164.00;;;15.30
4421;BMP180;11824;51.178;13.546;2024-02-16T11:39:55;100168.00;;;15.30
4421;BMP180;11824;51.178;13.546;2024-02-16T11:42:24;100169.00;;;15.40
4421;BMP180;11824;51.178;13.546;2024-02-16T11:44:54;100165.00;;;15.40
4421;BMP180;11824;51.178;13.546;2024-02-16T11:47:25;100169.00;;;15.30
4421;BMP180;11824;51.178;13.546;2024-02-16T11:50:04;100176.00;;;15.30
4421;BMP180;11824;51.178;13.546;2024-02-16T11:52:34;100168.00;;;15.30
4421;BMP180;11824;51.178;13.546;2024-02-16T11:55:07;100174.00;;;15.30
4421;BMP180;11824;51.178;13.546;2024-02-16T11:57:37;100175.00;;;15.30
4421;BMP180;11824;51.178;13.546;2024-02-16T12:00:08;100175.00;;;15.30
4421;BMP180;11824;51.178;13.546;2024-02-16T12:02:42;100179.00;;;15.30
4421;BMP180;11824;51.178;13.546;2024-02-16T12:05:14;100187.00;;;15.40
4421;BMP180;11824;51.178;13.546;2024-02-16T12:07:43;100194.00;;;15.50
4421;BMP180;11824;51.178;13.546;2024-02-16T12:10:16;100194.00;;;15.50
4421;BMP180;11824;51.178;13.546;2024-02-16T12:12:47;100181.00;;;15.50
4421;BMP180;11824;51.178;13.546;2024-02-16T12:15:16;100191.00;;;15.60
4421;BMP180;11824;51.178;13.546;2024-02-16T12:17:49;100185.00;;;15.50
4421;BMP180;11824;51.178;13.546;2024-02-16T12:20:26;100187.00;;;15.50
4421;BMP180;11824;51.178;13.546;2024-02-16T12:22:55;100188.00;;;15.50
4421;BMP180;11824;51.178;13.546;2024-02-16T12:25:25;100174.00;;;15.40
4421;BMP180;11824;51.178;13.546;2024-02-16T12:27:54;100178.00;;;15.40
4421;BMP180;11824;51.178;13.546;2024-02-16T12:30:23;100174.00;;;15.40
4421;BMP180;11824;51.178;13.546;2024-02-16T12:32:52;100172.00;;;15.40
4421;BMP180;11824;51.178;13.546;2024-02-16T12:35:21;100168.00;;;15.40
4421;BMP180;11824;51.178;13.546;2024-02-16T12:37:50;100170.00;;;15.40
4421;BMP180;11824;51.178;13.546;2024-02-16T12:40:19;100162.00;;;15.40
4421;BMP180;11824;51.178;13.546;2024-02-16T12:42:49;100154.00;;;15.40
4421;BMP180;11824;51.178;13.546;2024-02-16T12:45:18;100165.00;;;15.50
4421;BMP180;11824;51.178;13.546;2024-02-16T12:47:47;100156.00;;;15.50
4421;BMP180;11824;51.178;13.546;2024-02-16T12:50:17;100169.00;;;15.60
4421;BMP180;11824;51.178;13.546;2024-02-16T12:52:46;100167.00;;;15.60
4421;BMP180;11824;51.178;13.546;2024-02-16T12:55:26;100160.00;;;15.60
4421;BMP180;11824;51.178;13.546;2024-02-16T12:57:56;100167.00;;;15.70
4421;BMP180;11824;51.178;13.546;2024-02-16T13:00:25;100164.00;;;15.70
4421;BMP180;11824;51.178;13.546;2024-02-16T13:02:54;100171.00;;;15.80
4421;BMP180;11824;51.178;13.546;2024-02-16T13:05:23;100157.00;;;15.80
4421;BMP180;11824;51.178;13.546;2024-02-16T13:07:52;100169.00;;;15.90
4421;BMP180;11824;51.178;13.546;2024-02-16T13:10:21;100171.00;;;15.90
4421;BMP180;11824;51.178;13.546;2024-02-16T13:12:50;100165.00;;;16.00
4421;BMP180;11824;51.178;13.546;2024-02-16T13:15:20;100159.00;;;16.00
4421;BMP180;11824;51.178;13.546;2024-02-16T13:17:55;100162.00;;;16.00
4421;BMP180;11824;51.178;13.546;2024-02-16T13:20:24;100167.00;;;16.10
4421;BMP180;11824;51.178;13.546;2024-02-16T13:22:53;100156.00;;;16.10
4421;BMP180;11824;51.178;13.546;2024-02-16T13:25:22;100165.00;;;16.10
4421;BMP180;11824;51.178;13.546;2024-02-16T13:27:51;100165.00;;;16.10
4421;BMP180;11824;51.178;13.546;2024-02-16T13:30:21;100157.00;;;16.10
4421;BMP180;11824;51.178;13.546;2024-02-16T13:32:50;100162.00;;;16.10
4421;BMP180;11824;51.178;13.546;2024-02-16T13:35:19;100159.00;;;16.20
4421;BMP180;11824;51.178;13.546;2024-02-16T13:37:48;100170.00;;;16.10
4421;BMP180;11824;51.178;13.546;2024-02-16T13:40:17;100165.00;;;16.10
4421;BMP180;11824;51.178;13.546;2024-02-16T13:42:46;100157.00;;;16.10
4421;BMP180;11824;51.178;13.546;2024-02-16T13:45:15;100170.00;;;16.10
4421;BMP180;11824;51.178;13.546;2024-02-16T13:47:46;100157.00;;;16.10
4421;BMP180;11824;51.178;13.546;2024-02-16T13:50:15;100167.00;;;16.10
4421;BMP180;11824;51.178;13.546;2024-02-16T13:52:44;100160.00;;;16.10
4421;BMP180;11824;51.178;13.546;2024-02-16T13:55:13;100166.00;;;16.10
4421;BMP180;11824;51.178;13.546;2024-02-16T13:57:42;100163.00;;;16.10
4421;BMP180;11824;51.178;13.546;2024-02-16T14:00:12;100163.00;;;16.10
4421;BMP180;11824;51.178;13.546;2024-02-16T14:02:45;100162.00;;;16.10
4421;BMP180;11824;51.178;13.546;2024-02-16T14:05:14;100162.00;;;16.10
4421;BMP180;11824;51.178;13.546;2024-02-16T14:07:43;100167.00;;;16.00
4421;BMP180;11824;51.178;13.546;2024-02-16T14:10:26;100162.00;;;16.00
4421;BMP180;11824;51.178;13.546;2024-02-16T14:12:55;100159.00;;;16.00
4421;BMP180;11824;51.178;13.546;2024-02-16T14:15:24;100159.00;;;16.00
4421;BMP180;11824;51.178;13.546;2024-02-16T14:17:58;100162.00;;;15.90
4421;BMP180;11824;51.178;13.546;2024-02-16T14:20:37;100172.00;;;15.90